• Join FlightAware (Why Join?)
  • Login
  • US Flag 
06:25PM EDT


 

Airport Tracker/Info


-or-


 

Live Flight TrackerFlight Track Log ✈ EJA846 ✈ 01-May-2013 ✈ KBDL - KBWI

Flight Track Log - Related Links

Times and Time Zones

All times are in EDT time to prevent confusion due to time zone crossing. See the EJA846 flight status page for this flight to view local times or setup timezone preferences in your user account.

Time Position Orientation Groundspeed Altitude Reporting Facility
EDT Latitude Longitude Course Direction KTS MPH feet Rate Location/Type
01:58PM 41.9417 -72.6828 60° Northeast 124 143 1,000  Level Boston Center
01:58PM 41.9583 -72.6439 60° Northeast 188 216 3,400 3,900 Climbing Boston Center
01:59PM 41.9958 -72.6217 24° Northeast 250 288 6,000 3,780 Climbing Boston Center
02:00PM 42.0292 -72.6972 301° West 170 196 10,100 4,020 Climbing Boston Center
02:01PM 42.0017 -72.8033 251° West 174 200 14,100 3,600 Climbing Boston Center
02:02PM 41.9700 -72.9119 249° West 261 300 17,300 2,700 Climbing Boston Center
02:03PM 41.9361 -73.0317 249° West 303 349 19,600 2,340 Climbing Boston Center
02:04PM 41.8792 -73.1400 235° Southwest 334 384 22,000 2,160 Climbing Boston Center
02:05PM 41.7911 -73.2225 215° Southwest 361 415 24,000 960 Climbing Boston Center
02:06PM 41.6947 -73.3131 215° Southwest 395 455 24,000  Level Boston Center
02:07PM 41.5919 -73.4033 213° Southwest 429 494 24,000  Level Boston Center
02:08PM 41.5056 -73.4822 214° Southwest 436 502 24,000  Level Boston Center
02:09PM 41.3858 -73.5911 214° Southwest 436 502 24,000  Level Boston Center
02:10PM 41.2869 -73.6833 215° Southwest 441 507 24,000  Level Boston Center
02:11PM 41.2350 -73.7261 212° Southwest 440 506 24,000  Level New York Center
02:12PM 41.1386 -73.8264 218° Southwest 440 506 24,000  Level New York Center
02:13PM 41.0625 -73.9522 231° Southwest 434 499 24,000  Level New York Center
02:14PM 40.9903 -74.0753 232° Southwest 434 499 24,000  Level New York Center
02:15PM 40.9097 -74.1978 229° Southwest 440 506 24,000  Level New York Center
02:16PM 40.8375 -74.3231 233° Southwest 440 506 24,000  Level New York Center
02:17PM 40.7628 -74.4450 231° Southwest 434 499 24,000  Level New York Center
02:18PM 40.6903 -74.5672 232° Southwest 434 499 24,000  Level New York Center
02:19PM 40.6086 -74.7047 232° Southwest 434 499 24,000  Level New York Center
02:20PM 40.5297 -74.8175 227° Southwest 429 494 24,000 -240 Level New York Center
02:21PM 40.4508 -74.9303 227° Southwest 429 494 23,600 -1,260 Descending New York Center
02:22PM 40.3719 -75.0400 227° Southwest 424 488 21,500 -2,160 Descending New York Center
02:23PM 40.2947 -75.1522 228° Southwest 424 488 19,300 -1,740 Descending New York Center
02:24PM 40.2203 -75.2508 225° Southwest 412 474 18,000 -660 Descending New York Center
02:25PM 40.1453 -75.3572 227° Southwest 402 463 18,000  Level New York Center
02:26PM 40.0792 -75.4506 227° Southwest 397 457 18,000 -60 Level New York Center
02:27PM 39.9975 -75.5617 226° Southwest 397 457 17,900 -840 Descending New York Center
02:28PM 39.9333 -75.6519 227° Southwest 392 451 16,300 -1,620 Descending New York Center
02:29PM 39.8681 -75.7664 233° Southwest 374 430 14,800 -1,200 Descending New York Center
02:30PM 39.8158 -75.8681 236° Southwest 362 417 14,000 -840 Descending New York Center
02:32PM 39.7000 -76.1000 237° Southwest 343 395 12,200 -720 Descending Potomac TRACON
02:33PM 39.6333 -76.2000 229° Southwest 325 374 11,800 -1,260 Descending Potomac TRACON
02:34PM 39.6000 -76.2833 243° Southwest 294 338 9,700 -2,160 Descending Potomac TRACON
02:35PM 39.5500 -76.3667 232° Southwest 294 338 7,500 -1,380 Descending Potomac TRACON
02:36PM 39.5167 -76.4667 247° West 290 334 7,000 -300 Descending Potomac TRACON
02:37PM 39.5000 -76.5667 258° West 288 331 7,000  Level Potomac TRACON
02:38PM 39.5000 -76.6667 270° West 289 333 7,000 -420 Level Potomac TRACON
02:39PM 39.4500 -76.7500 232° Southwest 290 334 6,200 -1,440 Descending Potomac TRACON
02:40PM 39.3833 -76.8000 210° Southwest 269 310 4,200 -1,920 Descending Potomac TRACON
02:41PM 39.3333 -76.8000 180° South 259 298 2,600 -1,140 Descending Potomac TRACON
02:42PM 39.2667 -76.7333 142° Southeast 225 259 2,000 -780 Descending Potomac TRACON
02:43PM 39.2333 -76.7000 142° Southeast 195 224 1,100 -1,020 Descending Potomac TRACON